createdAt,value
2023-05-14T00:02:08.940Z,84
2023-05-14T00:03:08.838Z,84
2023-05-14T00:05:08.446Z,84
2023-05-14T00:06:08.726Z,84
2023-05-14T00:07:08.555Z,84
2023-05-14T00:08:08.990Z,84
2023-05-14T00:09:08.459Z,84
2023-05-14T00:11:08.320Z,84
2023-05-14T00:12:08.432Z,84
2023-05-14T00:13:08.362Z,84
2023-05-14T00:14:08.779Z,84
2023-05-14T00:15:09.149Z,84
2023-05-14T00:16:08.511Z,84
2023-05-14T00:17:08.643Z,84
2023-05-14T00:18:08.992Z,84
2023-05-14T00:21:08.565Z,84
2023-05-14T00:22:08.384Z,84
2023-05-14T00:23:08.646Z,84
2023-05-14T00:26:08.696Z,84
2023-05-14T00:27:08.420Z,84
2023-05-14T00:28:08.848Z,84
2023-05-14T00:29:08.308Z,84
2023-05-14T00:30:08.572Z,84
2023-05-14T00:31:08.892Z,84
2023-05-14T00:32:09.158Z,84
2023-05-14T00:33:08.411Z,84
2023-05-14T00:34:09.113Z,84
2023-05-14T00:35:08.808Z,84
2023-05-14T00:36:08.450Z,84
2023-05-14T00:37:08.712Z,84
2023-05-14T00:38:09.151Z,84
2023-05-14T00:41:08.318Z,84
2023-05-14T00:42:08.621Z,84
2023-05-14T00:43:08.947Z,84
2023-05-14T00:44:08.421Z,84
2023-05-14T00:45:08.793Z,84
2023-05-14T00:46:08.406Z,84
2023-05-14T00:47:09.104Z,84
2023-05-14T00:48:09.374Z,84
2023-05-14T00:49:09.027Z,84
2023-05-14T00:50:08.064Z,84
2023-05-14T00:51:08.486Z,84
2023-05-14T00:52:08.931Z,84
2023-05-14T00:53:09.494Z,84
2023-05-14T00:54:07.969Z,84
2023-05-14T00:55:08.756Z,84
2023-05-14T00:56:08.950Z,84
2023-05-14T00:57:08.057Z,84
2023-05-14T00:58:08.114Z,84
2023-05-14T00:59:08.397Z,84
2023-05-14T01:00:08.856Z,84
2023-05-14T01:01:09.416Z,84
2023-05-14T01:04:08.906Z,84
2023-05-14T01:05:09.010Z,84
2023-05-14T01:06:08.929Z,84
2023-05-14T01:08:08.153Z,84
2023-05-14T01:09:08.552Z,84
2023-05-14T01:10:08.906Z,84
2023-05-14T01:11:08.554Z,84
2023-05-14T01:12:08.636Z,84
2023-05-14T01:13:08.059Z,84
2023-05-14T01:14:08.728Z,84
2023-05-14T01:15:08.820Z,84
2023-05-14T01:16:09.247Z,84
2023-05-14T01:17:08.751Z,84
2023-05-14T01:21:07.335Z,84
2023-05-14T01:22:08.160Z,84
2023-05-14T01:23:09.063Z,84
2023-05-14T01:24:07.646Z,84
2023-05-14T01:25:08.194Z,84
2023-05-14T01:26:08.846Z,84
2023-05-14T01:27:08.591Z,84
2023-05-14T01:29:08.198Z,84
2023-05-14T01:30:08.421Z,84
2023-05-14T01:31:08.753Z,84
2023-05-14T01:32:09.192Z,84
2023-05-14T01:35:08.393Z,84
2023-05-14T01:36:08.635Z,84
2023-05-14T01:37:09.014Z,84
2023-05-14T01:38:09.211Z,84
2023-05-14T01:39:08.353Z,84
2023-05-14T01:40:08.856Z,84
2023-05-14T01:42:08.784Z,84
2023-05-14T01:43:08.998Z,84
2023-05-14T01:44:08.627Z,84
2023-05-14T01:47:08.437Z,84
2023-05-14T01:48:08.440Z,84
2023-05-14T01:49:08.657Z,84
2023-05-14T01:50:07.990Z,84
2023-05-14T01:51:08.663Z,84
2023-05-14T01:53:07.846Z,84
2023-05-14T01:54:09.064Z,84
2023-05-14T01:55:08.194Z,84
2023-05-14T01:56:08.340Z,84
2023-05-14T01:57:08.385Z,84
2023-05-14T01:58:08.769Z,84
2023-05-14T01:59:09.031Z,84
2023-05-14T02:00:09.101Z,84
2023-05-14T02:01:08.911Z,84
2023-05-14T02:02:08.726Z,84
2023-05-14T02:03:08.993Z,84
2023-05-14T02:04:08.298Z,84
2023-05-14T02:05:11.264Z,84
2023-05-14T02:09:08.492Z,84
2023-05-14T02:10:08.793Z,84
2023-05-14T02:11:08.846Z,84
2023-05-14T02:12:08.562Z,84
2023-05-14T02:13:08.357Z,84
2023-05-14T02:14:08.476Z,84
2023-05-14T02:15:08.848Z,84
2023-05-14T02:16:08.427Z,84
2023-05-14T02:17:07.112Z,84
2023-05-14T02:18:08.541Z,84
2023-05-14T02:19:08.582Z,84
2023-05-14T02:20:07.224Z,84
2023-05-14T02:21:08.570Z,84
2023-05-14T02:22:08.876Z,84
2023-05-14T02:26:08.334Z,84
2023-05-14T02:27:08.474Z,84
2023-05-14T02:28:09.185Z,84
2023-05-14T02:29:09.003Z,84
2023-05-14T02:30:09.131Z,84
2023-05-14T02:31:09.272Z,84
2023-05-14T02:32:09.398Z,84
2023-05-14T02:33:29.816Z,84
2023-05-14T02:35:08.372Z,84
2023-05-14T02:36:08.192Z,84
2023-05-14T02:37:08.093Z,84
2023-05-14T02:38:08.317Z,84
2023-05-14T02:39:08.491Z,84
2023-05-14T02:40:08.474Z,84
2023-05-14T02:41:08.581Z,84
2023-05-14T02:42:08.913Z,84
2023-05-14T02:45:08.518Z,84
2023-05-14T02:46:08.630Z,84
2023-05-14T02:47:09.572Z,84
2023-05-14T02:48:08.734Z,84
2023-05-14T02:49:08.716Z,84
2023-05-14T02:50:08.265Z,84
2023-05-14T02:51:08.724Z,84
2023-05-14T02:52:08.359Z,84
2023-05-14T02:53:09.057Z,84
2023-05-14T02:54:09.001Z,84
2023-05-14T02:55:08.347Z,84
2023-05-14T02:56:09.057Z,84
2023-05-14T02:57:09.060Z,84
2023-05-14T03:02:09.578Z,84
2023-05-14T03:05:09.125Z,84
2023-05-14T03:06:08.337Z,84
2023-05-14T03:07:07.592Z,84
2023-05-14T03:11:08.564Z,84
2023-05-14T03:12:08.827Z,84
2023-05-14T03:13:09.128Z,84
2023-05-14T03:14:08.627Z,84
2023-05-14T03:15:09.329Z,84
2023-05-14T03:16:09.152Z,84
2023-05-14T03:17:08.462Z,84
2023-05-14T03:18:09.024Z,84
2023-05-14T03:19:09.173Z,84
2023-05-14T03:20:08.126Z,84
2023-05-14T03:21:08.989Z,84
2023-05-14T03:22:09.156Z,84
2023-05-14T03:26:08.640Z,84
2023-05-14T03:27:08.894Z,84
2023-05-14T03:28:09.168Z,84
2023-05-14T03:29:08.530Z,84
2023-05-14T03:30:08.064Z,84
2023-05-14T03:31:09.248Z,84
2023-05-14T03:32:08.403Z,84
2023-05-14T03:33:08.667Z,84
2023-05-14T03:34:08.726Z,84
2023-05-14T03:35:08.832Z,84
2023-05-14T03:36:08.318Z,84
2023-05-14T03:37:08.641Z,84
2023-05-14T03:38:08.704Z,84
2023-05-14T03:39:07.980Z,84
2023-05-14T03:40:09.406Z,84
2023-05-14T03:44:08.505Z,84
2023-05-14T03:45:08.598Z,84
2023-05-14T03:46:08.498Z,84
2023-05-14T03:47:09.134Z,84
2023-05-14T03:48:09.892Z,84
2023-05-14T03:49:08.630Z,84
2023-05-14T03:50:08.858Z,84
2023-05-14T03:51:08.275Z,84
2023-05-14T03:52:08.822Z,84
2023-05-14T03:53:08.631Z,84
2023-05-14T03:54:08.658Z,84
2023-05-14T03:55:08.664Z,84
2023-05-14T03:56:08.448Z,84
2023-05-14T03:57:08.830Z,84
2023-05-14T03:58:09.000Z,84
2023-05-14T04:01:08.458Z,84
2023-05-14T04:02:08.250Z,84
2023-05-14T04:03:09.158Z,84
2023-05-14T04:04:08.830Z,84
2023-05-14T04:05:09.641Z,84
2023-05-14T04:06:07.352Z,84
2023-05-14T04:08:08.405Z,84
2023-05-14T04:09:09.110Z,84
2023-05-14T04:10:09.093Z,84
2023-05-14T04:11:08.613Z,84
2023-05-14T04:12:08.952Z,84
2023-05-14T04:18:08.372Z,84
2023-05-14T04:19:09.283Z,84
2023-05-14T04:20:08.773Z,84
2023-05-14T04:21:08.609Z,84
2023-05-14T04:22:09.238Z,84
2023-05-14T04:23:08.264Z,84
2023-05-14T04:24:08.438Z,84
2023-05-14T04:25:09.500Z,84
2023-05-14T04:26:07.942Z,84
2023-05-14T04:27:08.478Z,84
2023-05-14T04:28:08.653Z,84
2023-05-14T04:29:08.940Z,84
2023-05-14T04:30:08.294Z,84
2023-05-14T04:31:08.626Z,84
2023-05-14T04:32:09.011Z,84
2023-05-14T04:33:09.572Z,84
2023-05-14T04:36:08.354Z,84
2023-05-14T04:37:08.592Z,84
2023-05-14T04:38:09.318Z,84
2023-05-14T04:39:08.607Z,84
2023-05-14T04:40:08.974Z,84
2023-05-14T04:41:09.253Z,84
2023-05-14T04:42:08.438Z,84
2023-05-14T04:43:08.500Z,84
2023-05-14T04:44:08.716Z,84
2023-05-14T04:47:08.430Z,84
2023-05-14T04:48:09.262Z,84
2023-05-14T04:49:08.429Z,84
2023-05-14T04:50:08.654Z,84
2023-05-14T04:51:11.229Z,84
2023-05-14T04:54:08.187Z,84
2023-05-14T04:57:08.210Z,84
2023-05-14T04:58:08.092Z,84
2023-05-14T04:59:09.249Z,84
2023-05-14T05:00:08.940Z,84
2023-05-14T05:01:08.394Z,84
2023-05-14T05:02:09.055Z,84
2023-05-14T05:03:08.744Z,84
2023-05-14T05:04:09.045Z,84
2023-05-14T05:08:08.449Z,84
2023-05-14T05:09:09.077Z,84
2023-05-14T05:10:08.393Z,84
2023-05-14T05:11:08.549Z,84
2023-05-14T05:12:08.480Z,84
2023-05-14T05:16:08.707Z,84
2023-05-14T05:17:08.899Z,84
2023-05-14T05:21:08.916Z,84
2023-05-14T05:23:08.692Z,84
2023-05-14T05:24:08.525Z,84
2023-05-14T05:25:08.854Z,84
2023-05-14T05:26:08.601Z,84
2023-05-14T05:27:08.494Z,84
2023-05-14T05:28:08.948Z,84
2023-05-14T05:29:09.141Z,84
2023-05-14T05:30:08.450Z,84
2023-05-14T05:31:08.660Z,84
2023-05-14T05:34:08.891Z,84
2023-05-14T05:35:08.640Z,84
2023-05-14T05:36:08.756Z,84
2023-05-14T05:41:08.819Z,84
2023-05-14T05:42:08.766Z,84
2023-05-14T05:43:09.258Z,84
2023-05-14T05:45:08.027Z,84
2023-05-14T05:46:08.902Z,84
2023-05-14T05:47:09.244Z,84
2023-05-14T05:48:08.443Z,84
2023-05-14T05:49:09.177Z,84
2023-05-14T05:50:08.409Z,84
2023-05-14T05:51:07.926Z,84
2023-05-14T05:52:08.589Z,83
2023-05-14T05:53:08.900Z,83
2023-05-14T05:54:09.215Z,83
2023-05-14T05:55:08.429Z,83
2023-05-14T05:56:08.692Z,83
2023-05-14T05:57:08.935Z,83
2023-05-14T06:02:08.802Z,83
2023-05-14T06:03:09.154Z,83
2023-05-14T06:04:08.287Z,83
2023-05-14T06:05:09.009Z,83
2023-05-14T06:06:08.362Z,83
2023-05-14T06:07:08.270Z,83
2023-05-14T06:08:08.684Z,83
2023-05-14T06:09:08.637Z,83
2023-05-14T06:10:08.661Z,83
2023-05-14T06:11:08.963Z,83
2023-05-14T06:16:08.868Z,83
2023-05-14T06:17:09.101Z,83
2023-05-14T06:18:08.452Z,83
2023-05-14T06:19:08.896Z,83
2023-05-14T06:20:08.938Z,83
2023-05-14T06:21:08.533Z,83
2023-05-14T06:22:09.015Z,83
2023-05-14T06:23:09.359Z,83
2023-05-14T06:24:08.549Z,83
2023-05-14T06:25:08.882Z,83
2023-05-14T06:26:09.401Z,82
2023-05-14T06:27:08.120Z,82
2023-05-14T06:28:08.840Z,82
2023-05-14T06:29:08.711Z,82
2023-05-14T06:30:09.259Z,82
2023-05-14T06:33:08.146Z,82
2023-05-14T06:34:09.013Z,82
2023-05-14T06:35:08.275Z,82
2023-05-14T06:36:09.345Z,82
2023-05-14T06:37:08.927Z,82
2023-05-14T06:38:08.361Z,82
2023-05-14T06:39:08.853Z,82
2023-05-14T06:40:08.948Z,82
2023-05-14T06:41:09.192Z,82
2023-05-14T06:42:08.358Z,82
2023-05-14T06:43:09.007Z,82
2023-05-14T06:44:09.244Z,82
2023-05-14T06:47:08.567Z,81
2023-05-14T06:48:08.931Z,81
2023-05-14T06:49:08.778Z,81
2023-05-14T06:50:10.801Z,81
2023-05-14T06:51:08.419Z,81
2023-05-14T06:52:08.647Z,80
2023-05-14T06:53:08.613Z,80
2023-05-14T06:54:08.218Z,80
2023-05-14T06:55:08.690Z,81
2023-05-14T06:58:08.457Z,81
2023-05-14T06:59:08.024Z,81
2023-05-14T07:00:10.270Z,80
2023-05-14T07:01:08.801Z,80
2023-05-14T07:02:07.757Z,80
2023-05-14T07:03:09.008Z,80
2023-05-14T07:04:08.806Z,80
2023-05-14T07:08:09.087Z,80
2023-05-14T07:09:08.433Z,80
2023-05-14T07:10:08.677Z,80
2023-05-14T07:11:08.579Z,80
2023-05-14T07:12:08.624Z,80
2023-05-14T07:13:08.864Z,80
2023-05-14T07:14:09.369Z,80
2023-05-14T07:18:08.459Z,80
2023-05-14T07:19:08.944Z,80
2023-05-14T07:21:08.261Z,80
2023-05-14T07:22:08.651Z,79
2023-05-14T07:23:09.109Z,79
2023-05-14T07:24:09.179Z,79
2023-05-14T07:25:08.434Z,79
2023-05-14T07:26:09.205Z,79
2023-05-14T07:27:09.295Z,79
2023-05-14T07:28:08.742Z,79
2023-05-14T07:29:09.443Z,79
2023-05-14T07:30:09.127Z,79
2023-05-14T07:32:08.401Z,79
2023-05-14T07:33:09.021Z,78
2023-05-14T07:34:08.100Z,78
2023-05-14T07:35:08.635Z,78
2023-05-14T07:36:09.020Z,78
2023-05-14T07:37:08.052Z,78
2023-05-14T07:38:09.076Z,78
2023-05-14T07:39:09.411Z,78
2023-05-14T07:40:07.849Z,78
2023-05-14T07:41:08.690Z,78
2023-05-14T07:42:09.129Z,78
2023-05-14T07:43:08.477Z,78
2023-05-14T07:44:08.822Z,78
2023-05-14T07:45:09.191Z,78
2023-05-14T07:46:08.577Z,78
2023-05-14T07:47:09.046Z,77
2023-05-14T07:48:09.483Z,77
2023-05-14T07:49:08.232Z,77
2023-05-14T07:50:08.679Z,77
2023-05-14T07:51:09.249Z,77
2023-05-14T07:52:08.341Z,77
2023-05-14T07:53:08.489Z,77
2023-05-14T07:54:09.210Z,77
2023-05-14T08:00:08.441Z,78
2023-05-14T08:01:08.778Z,77
2023-05-14T08:02:09.338Z,77
2023-05-14T08:03:08.671Z,77
2023-05-14T08:04:09.045Z,77
2023-05-14T08:06:08.696Z,78
2023-05-14T08:07:08.731Z,78
2023-05-14T08:08:08.467Z,78
2023-05-14T08:09:08.612Z,77
2023-05-14T08:10:08.969Z,77
2023-05-14T08:11:08.944Z,77
2023-05-14T08:12:08.996Z,77
2023-05-14T08:13:08.563Z,77
2023-05-14T08:14:08.959Z,77
2023-05-14T08:15:09.103Z,77
2023-05-14T08:16:08.300Z,77
2023-05-14T08:19:08.985Z,77
2023-05-14T08:20:08.674Z,77
2023-05-14T08:21:10.063Z,77
2023-05-14T08:22:08.512Z,77
2023-05-14T08:23:09.000Z,77
2023-05-14T08:24:09.181Z,77
2023-05-14T08:25:08.384Z,77
2023-05-14T08:26:08.462Z,77
2023-05-14T08:27:08.504Z,77
2023-05-14T08:28:08.546Z,77
2023-05-14T08:29:10.991Z,77
2023-05-14T08:30:08.139Z,77
2023-05-14T08:31:08.691Z,77
2023-05-14T08:32:26.003Z,77
2023-05-14T08:34:09.378Z,77
2023-05-14T08:40:08.511Z,76
2023-05-14T08:41:08.610Z,76
2023-05-14T08:42:08.654Z,76
2023-05-14T08:43:09.076Z,76
2023-05-14T08:44:08.467Z,76
2023-05-14T08:45:08.268Z,76
2023-05-14T08:46:08.572Z,76
2023-05-14T08:48:08.827Z,76
2023-05-14T08:49:09.195Z,76
2023-05-14T08:50:09.294Z,76
2023-05-14T08:52:08.976Z,76
2023-05-14T08:53:09.219Z,75
2023-05-14T08:54:08.487Z,75
2023-05-14T08:55:08.869Z,75
2023-05-14T08:56:08.372Z,75
2023-05-14T08:57:08.400Z,75
2023-05-14T08:58:08.521Z,75
2023-05-14T08:59:08.313Z,75
2023-05-14T09:00:08.990Z,75
2023-05-14T09:03:08.710Z,74
2023-05-14T09:04:08.735Z,74
2023-05-14T09:05:08.231Z,74
2023-05-14T09:06:08.638Z,74
2023-05-14T09:07:08.917Z,74
2023-05-14T09:08:07.882Z,74
2023-05-14T09:09:09.241Z,75
2023-05-14T09:10:08.349Z,75
2023-05-14T09:11:08.667Z,75
2023-05-14T09:12:08.995Z,75
2023-05-14T09:13:09.225Z,75
2023-05-14T09:14:08.470Z,75
2023-05-14T09:15:08.972Z,75
2023-05-14T09:16:09.371Z,74
2023-05-14T09:17:08.410Z,74
2023-05-14T09:18:08.794Z,74
2023-05-14T09:19:08.918Z,74
2023-05-14T09:20:09.225Z,74
2023-05-14T09:24:08.408Z,74
2023-05-14T09:25:08.545Z,74
2023-05-14T09:26:09.180Z,73
2023-05-14T09:27:08.199Z,73
2023-05-14T09:28:08.871Z,73
2023-05-14T09:29:09.188Z,73
2023-05-14T09:30:08.410Z,73
2023-05-14T09:31:08.904Z,73
2023-05-14T09:32:08.186Z,73
2023-05-14T09:33:08.606Z,73
2023-05-14T09:34:08.606Z,73
2023-05-14T09:35:08.998Z,73
2023-05-14T09:36:08.452Z,73
2023-05-14T09:37:08.900Z,73
2023-05-14T09:38:08.463Z,73
2023-05-14T09:39:08.800Z,73
2023-05-14T09:40:09.012Z,73
2023-05-14T09:41:08.603Z,73
2023-05-14T09:42:08.750Z,73
2023-05-14T09:43:08.869Z,73
2023-05-14T09:44:11.118Z,72
2023-05-14T09:48:08.748Z,72
2023-05-14T09:49:08.857Z,72
2023-05-14T09:50:09.371Z,72
2023-05-14T09:51:09.275Z,71
2023-05-14T09:52:08.877Z,70
2023-05-14T09:53:09.269Z,70
2023-05-14T09:57:08.804Z,70
2023-05-14T09:58:08.241Z,70
2023-05-14T09:59:08.585Z,69
2023-05-14T10:00:08.840Z,69
2023-05-14T10:01:08.069Z,69
2023-05-14T10:02:09.016Z,69
2023-05-14T10:03:08.641Z,69
2023-05-14T10:04:08.065Z,69
2023-05-14T10:05:09.019Z,69
2023-05-14T10:06:08.450Z,69
2023-05-14T10:07:08.621Z,69
2023-05-14T10:10:08.639Z,68
2023-05-14T10:11:09.171Z,68
2023-05-14T10:12:09.408Z,68
2023-05-14T10:13:08.239Z,68
2023-05-14T10:14:08.838Z,68
2023-05-14T10:15:08.898Z,68
2023-05-14T10:16:08.372Z,68
2023-05-14T10:17:09.039Z,68
2023-05-14T10:18:09.537Z,68
2023-05-14T10:19:08.813Z,67
2023-05-14T10:20:08.849Z,67
2023-05-14T10:21:08.489Z,67
2023-05-14T10:22:08.822Z,67
2023-05-14T10:23:09.348Z,67
2023-05-14T10:24:08.685Z,68
2023-05-14T10:25:08.814Z,67
2023-05-14T10:26:09.368Z,67
2023-05-14T10:27:08.393Z,67
2023-05-14T10:28:08.934Z,67
2023-05-14T10:29:08.833Z,66
2023-05-14T10:32:08.549Z,65
2023-05-14T10:33:09.181Z,65
2023-05-14T10:34:08.910Z,65
2023-05-14T10:35:08.457Z,65
2023-05-14T10:36:08.969Z,64
2023-05-14T10:37:08.569Z,64
2023-05-14T10:38:08.831Z,64
2023-05-14T10:40:08.247Z,64
2023-05-14T10:44:08.454Z,64
2023-05-14T10:45:08.540Z,64
2023-05-14T10:46:08.879Z,64
2023-05-14T10:47:09.266Z,64
2023-05-14T10:48:08.584Z,63
2023-05-14T10:49:08.674Z,63
2023-05-14T10:50:09.212Z,64
2023-05-14T10:51:09.132Z,64
2023-05-14T10:52:09.151Z,63
2023-05-14T10:53:08.549Z,63
2023-05-14T10:54:08.858Z,63
2023-05-14T10:55:10.398Z,63
2023-05-14T10:56:08.239Z,63
2023-05-14T10:57:09.090Z,62
2023-05-14T10:58:08.303Z,62
2023-05-14T10:59:08.361Z,63
2023-05-14T11:00:08.970Z,63
2023-05-14T11:01:08.776Z,62
2023-05-14T11:02:08.696Z,62
2023-05-14T11:03:08.848Z,62
2023-05-14T11:04:09.124Z,62
2023-05-14T11:06:08.294Z,62
2023-05-14T11:07:09.046Z,62
2023-05-14T11:08:09.348Z,63
2023-05-14T11:11:08.867Z,62
2023-05-14T11:12:09.151Z,62
2023-05-14T11:13:09.205Z,62
2023-05-14T11:14:10.111Z,62
2023-05-14T11:15:09.289Z,61
2023-05-14T11:16:27.778Z,61
2023-05-14T11:18:08.846Z,61
2023-05-14T11:19:09.619Z,61
2023-05-14T11:20:08.161Z,60
2023-05-14T11:21:09.105Z,60
2023-05-14T11:23:08.770Z,60
2023-05-14T11:24:08.974Z,60
2023-05-14T11:25:09.258Z,60
2023-05-14T11:26:08.954Z,60
2023-05-14T11:27:09.124Z,60
2023-05-14T11:29:08.450Z,60
2023-05-14T11:30:08.582Z,61
2023-05-14T11:31:09.360Z,61
2023-05-14T11:32:08.711Z,60
2023-05-14T11:33:09.332Z,59
2023-05-14T11:34:08.607Z,59
2023-05-14T11:35:08.424Z,59
2023-05-14T11:36:09.157Z,58
2023-05-14T11:37:07.921Z,59
2023-05-14T11:38:09.315Z,59
2023-05-14T11:39:09.351Z,59
2023-05-14T11:41:08.997Z,59
2023-05-14T11:42:08.370Z,59
2023-05-14T11:43:08.584Z,59
2023-05-14T11:44:11.197Z,59
2023-05-14T11:46:09.455Z,59
2023-05-14T11:47:08.571Z,59
2023-05-14T11:48:09.095Z,59
2023-05-14T11:50:09.692Z,59
2023-05-14T11:51:09.318Z,59
2023-05-14T11:53:08.667Z,59
2023-05-14T11:54:09.193Z,59
2023-05-14T11:55:08.578Z,59
2023-05-14T11:56:11.931Z,59
2023-05-14T11:58:08.590Z,59
2023-05-14T12:01:08.415Z,59
2023-05-14T12:02:09.131Z,59
2023-05-14T12:03:09.339Z,59
2023-05-14T12:04:09.828Z,59
2023-05-14T12:05:08.402Z,59
2023-05-14T12:06:09.053Z,59
2023-05-14T12:07:08.349Z,59
2023-05-14T12:08:08.600Z,59
2023-05-14T12:09:09.114Z,59
2023-05-14T12:10:09.190Z,59
2023-05-14T12:11:08.870Z,59
2023-05-14T12:12:09.014Z,59
2023-05-14T12:13:08.522Z,59
2023-05-14T12:14:09.132Z,59
2023-05-14T12:15:08.743Z,58
2023-05-14T12:18:27.232Z,58
2023-05-14T12:20:09.172Z,59
2023-05-14T12:21:09.195Z,59
2023-05-14T12:22:08.471Z,59
2023-05-14T12:23:08.881Z,59
2023-05-14T12:24:09.496Z,59
2023-05-14T12:25:08.573Z,59
2023-05-14T12:26:09.193Z,59
2023-05-14T12:27:09.298Z,58
2023-05-14T12:28:08.178Z,58
2023-05-14T12:30:26.648Z,59
2023-05-14T12:32:08.453Z,59
2023-05-14T12:33:08.280Z,59
2023-05-14T12:34:08.642Z,59
2023-05-14T12:35:08.735Z,59
2023-05-14T12:36:23.222Z,59
2023-05-14T12:38:09.317Z,58
2023-05-14T12:39:08.601Z,58
2023-05-14T12:40:08.794Z,58
2023-05-14T12:41:09.293Z,58
2023-05-14T12:42:08.355Z,58
2023-05-14T12:43:08.612Z,58
2023-05-14T12:44:08.969Z,58
2023-05-14T12:45:08.797Z,58
2023-05-14T12:49:08.709Z,58
2023-05-14T12:50:08.804Z,58
2023-05-14T12:51:08.633Z,58
2023-05-14T12:52:42.258Z,58
2023-05-14T12:54:08.404Z,58
2023-05-14T12:55:08.826Z,58
2023-05-14T12:56:08.967Z,58
2023-05-14T12:57:09.253Z,58
2023-05-14T12:58:08.459Z,58
2023-05-14T12:59:08.727Z,57
2023-05-14T13:00:09.852Z,57
2023-05-14T13:01:08.908Z,57
2023-05-14T13:02:08.827Z,57
2023-05-14T13:03:09.441Z,57
2023-05-14T13:04:08.778Z,57
2023-05-14T13:05:08.633Z,57
2023-05-14T13:06:09.053Z,57
2023-05-14T13:07:08.801Z,57
2023-05-14T13:08:08.524Z,57
2023-05-14T13:09:08.852Z,58
2023-05-14T13:10:09.269Z,58
2023-05-14T13:11:08.764Z,58
2023-05-14T13:12:08.815Z,58
2023-05-14T13:13:09.245Z,58
2023-05-14T13:17:09.113Z,59
2023-05-14T13:18:09.370Z,59
2023-05-14T13:19:08.492Z,58
2023-05-14T13:21:08.942Z,58
2023-05-14T13:22:08.965Z,58
2023-05-14T13:23:09.006Z,58
2023-05-14T13:24:09.546Z,58
2023-05-14T13:25:08.858Z,58
2023-05-14T13:26:09.410Z,58
2023-05-14T13:27:08.505Z,58
2023-05-14T13:28:08.868Z,58
2023-05-14T13:29:08.417Z,58
2023-05-14T13:30:08.893Z,58
2023-05-14T13:31:08.315Z,58
2023-05-14T13:32:08.573Z,58
2023-05-14T13:33:08.950Z,58
2023-05-14T13:35:08.517Z,58
2023-05-14T13:37:08.610Z,59
2023-05-14T13:38:08.258Z,58
2023-05-14T13:39:08.580Z,58
2023-05-14T13:40:08.975Z,58
2023-05-14T13:41:08.575Z,58
2023-05-14T13:42:08.988Z,58
2023-05-14T13:43:09.325Z,58
2023-05-14T13:44:08.361Z,58
2023-05-14T13:45:08.433Z,58
2023-05-14T13:46:08.861Z,58
2023-05-14T13:47:08.928Z,58
2023-05-14T13:48:09.332Z,58
2023-05-14T13:49:08.433Z,58
2023-05-14T13:50:08.607Z,58
2023-05-14T13:51:08.074Z,59
2023-05-14T13:52:08.617Z,59
2023-05-14T13:53:09.027Z,59
2023-05-14T13:54:09.260Z,59
2023-05-14T13:55:09.118Z,60
2023-05-14T14:00:08.559Z,59
2023-05-14T14:01:08.319Z,59
2023-05-14T14:02:08.803Z,59
2023-05-14T14:03:09.386Z,60
2023-05-14T14:04:08.321Z,60
2023-05-14T14:05:09.062Z,60
2023-05-14T14:06:09.385Z,61
2023-05-14T14:07:09.389Z,61
2023-05-14T14:08:24.821Z,61
2023-05-14T14:10:08.219Z,62
2023-05-14T14:11:08.922Z,62
2023-05-14T14:12:09.110Z,62
2023-05-14T14:13:08.644Z,62
2023-05-14T14:14:08.763Z,63
2023-05-14T14:15:08.834Z,63
2023-05-14T14:16:09.306Z,64
2023-05-14T14:20:08.482Z,65
2023-05-14T14:21:08.697Z,65
2023-05-14T14:22:09.263Z,65
2023-05-14T14:23:08.445Z,66
2023-05-14T14:24:09.037Z,66
2023-05-14T14:25:08.283Z,66
2023-05-14T14:26:09.076Z,67
2023-05-14T14:27:09.364Z,68
2023-05-14T14:28:08.439Z,68
2023-05-14T14:29:08.905Z,69
2023-05-14T14:30:09.261Z,69
2023-05-14T14:31:08.541Z,70
2023-05-14T14:34:08.266Z,70
2023-05-14T14:35:09.298Z,70
2023-05-14T14:36:08.663Z,71
2023-05-14T14:37:09.036Z,71
2023-05-14T14:38:08.324Z,71
2023-05-14T14:39:08.553Z,72
2023-05-14T14:40:09.405Z,72
2023-05-14T14:41:07.554Z,72
2023-05-14T14:42:08.932Z,73
2023-05-14T14:43:09.136Z,73
2023-05-14T14:44:08.342Z,73
2023-05-14T14:45:08.684Z,73
2023-05-14T14:46:08.407Z,73
2023-05-14T14:47:08.451Z,74
2023-05-14T14:48:08.709Z,74
2023-05-14T14:49:09.418Z,74
2023-05-14T14:50:08.488Z,74
2023-05-14T14:51:08.384Z,75
2023-05-14T14:52:08.574Z,75
2023-05-14T14:53:09.020Z,75
2023-05-14T14:54:08.307Z,75
2023-05-14T15:01:09.092Z,77
2023-05-14T15:02:08.562Z,77
2023-05-14T15:03:08.928Z,77
2023-05-14T15:04:08.047Z,78
2023-05-14T15:05:08.361Z,77
2023-05-14T15:06:08.735Z,77
2023-05-14T15:07:08.556Z,78
2023-05-14T15:08:08.830Z,78
2023-05-14T15:09:09.028Z,78
2023-05-14T15:10:08.387Z,78
2023-05-14T15:15:08.577Z,78
2023-05-14T15:16:09.018Z,78
2023-05-14T15:17:09.479Z,79
2023-05-14T15:18:08.633Z,79
2023-05-14T15:19:08.790Z,79
2023-05-14T15:20:09.270Z,79
2023-05-14T15:21:08.474Z,79
2023-05-14T15:22:09.094Z,79
2023-05-14T15:23:08.413Z,79
2023-05-14T15:24:08.684Z,79
2023-05-14T15:25:09.023Z,80
2023-05-14T15:26:08.468Z,80
2023-05-14T15:27:08.787Z,80
2023-05-14T15:28:08.962Z,80
2023-05-14T15:29:08.370Z,80
2023-05-14T15:30:08.608Z,80
2023-05-14T15:35:08.590Z,81
2023-05-14T15:36:09.109Z,81
2023-05-14T15:37:09.118Z,81
2023-05-14T15:38:08.360Z,81
2023-05-14T15:39:09.052Z,81
2023-05-14T15:40:09.211Z,81
2023-05-14T15:43:08.270Z,81
2023-05-14T15:44:08.745Z,81
2023-05-14T15:45:08.987Z,81
2023-05-14T15:46:08.491Z,81
2023-05-14T15:47:08.720Z,81
2023-05-14T15:48:09.263Z,82
2023-05-14T15:49:09.344Z,81
2023-05-14T15:50:08.666Z,82
2023-05-14T15:51:08.207Z,82
2023-05-14T15:52:08.854Z,82
2023-05-14T15:53:08.422Z,82
2023-05-14T15:54:08.592Z,82
2023-05-14T15:55:09.284Z,82
2023-05-14T15:56:08.932Z,82
2023-05-14T15:57:09.197Z,82
2023-05-14T15:59:08.378Z,82
2023-05-14T16:00:08.854Z,82
2023-05-14T16:01:09.022Z,82
2023-05-14T16:02:08.845Z,82
2023-05-14T16:03:09.079Z,82
2023-05-14T16:04:09.415Z,82
2023-05-14T16:06:08.285Z,82
2023-05-14T16:07:11.957Z,82
2023-05-14T16:08:09.140Z,82
2023-05-14T16:10:09.255Z,82
2023-05-14T16:11:08.482Z,82
2023-05-14T16:12:08.300Z,82
2023-05-14T16:13:08.788Z,82
2023-05-14T16:14:08.642Z,82
2023-05-14T16:15:09.063Z,82
2023-05-14T16:17:08.355Z,83
2023-05-14T16:18:07.819Z,83
2023-05-14T16:19:09.394Z,83
2023-05-14T16:20:08.582Z,83
2023-05-14T16:21:08.227Z,83
2023-05-14T16:22:08.753Z,83
2023-05-14T16:23:08.939Z,83
2023-05-14T16:26:09.130Z,83
2023-05-14T16:27:08.544Z,83
2023-05-14T16:28:08.867Z,83
2023-05-14T16:29:09.280Z,83
2023-05-14T16:30:08.263Z,83
2023-05-14T16:31:10.206Z,83
2023-05-14T16:32:09.444Z,83
2023-05-14T16:33:08.385Z,83
2023-05-14T16:34:08.959Z,84
2023-05-14T16:35:09.184Z,84
2023-05-14T16:36:09.300Z,84
2023-05-14T16:38:08.266Z,84
2023-05-14T16:39:12.824Z,84
2023-05-14T16:41:08.737Z,84
2023-05-14T16:42:09.006Z,84
2023-05-14T16:43:08.430Z,84
2023-05-14T16:44:08.697Z,84
2023-05-14T16:45:08.967Z,84
2023-05-14T16:46:08.940Z,84
2023-05-14T16:47:09.208Z,84
2023-05-14T16:48:08.373Z,84
2023-05-14T16:49:08.520Z,84
2023-05-14T16:50:09.111Z,84
2023-05-14T16:54:08.690Z,84
2023-05-14T16:55:09.131Z,84
2023-05-14T16:56:09.304Z,84
2023-05-14T16:57:08.318Z,84
2023-05-14T16:58:08.562Z,84
2023-05-14T16:59:10.421Z,84
2023-05-14T17:00:08.579Z,84
2023-05-14T17:02:10.273Z,84
2023-05-14T17:04:08.927Z,84
2023-05-14T17:05:07.949Z,84
2023-05-14T17:06:08.753Z,84
2023-05-14T17:07:08.599Z,84
2023-05-14T17:08:09.218Z,84
2023-05-14T17:09:08.608Z,84
2023-05-14T17:10:08.987Z,84
2023-05-14T17:14:08.533Z,84
2023-05-14T17:15:11.793Z,84
2023-05-14T17:16:08.738Z,84
2023-05-14T17:19:08.617Z,84
2023-05-14T17:21:08.500Z,84
2023-05-14T17:22:08.780Z,84
2023-05-14T17:23:09.207Z,84
2023-05-14T17:24:07.975Z,84
2023-05-14T17:25:08.797Z,84
2023-05-14T17:26:09.182Z,84
2023-05-14T17:27:09.440Z,84
2023-05-14T17:28:08.274Z,84
2023-05-14T17:29:08.327Z,84
2023-05-14T17:30:08.775Z,84
2023-05-14T17:31:08.630Z,84
2023-05-14T17:32:08.911Z,84
2023-05-14T17:33:09.633Z,84
2023-05-14T17:34:08.578Z,84
2023-05-14T17:35:08.949Z,84
2023-05-14T17:36:09.238Z,84
2023-05-14T17:37:08.668Z,84
2023-05-14T17:38:09.031Z,84
2023-05-14T17:40:08.530Z,84
2023-05-14T17:41:09.055Z,84
2023-05-14T17:42:08.152Z,84
2023-05-14T17:43:08.589Z,84
2023-05-14T17:44:10.256Z,84
2023-05-14T17:45:08.392Z,84
2023-05-14T17:46:08.618Z,84
2023-05-14T17:47:09.362Z,84